KLM188 TNCC-EHAM
Flight info
| Callsign | KLM188 |
|---|---|
| Flight time | N/A |
| Altitude | 35000 |
| Route | SCAPA1K SCAPA L335 OBIKE/M084F370 M576 RKDIA DCT 25N055W 29N050W 33N040W/M084F390 40N030W 44N020W 47N015W DCT TAMEL DCT EVBAK DCT GAPLI/N0486F390 DCT GAJIT DCT ENHAQ M197 REDFA |
| Aircraft | B772/H-SDE2E3FGHIJ5LORVWXY/LB1D1 |
Departure
| Time | 2026-05-04 08:24 |
|---|---|
| Airport | Hato International Airport (TNCC) |
Arrival
| Time | N/A |
|---|---|
| Airport | Amsterdam Airport Schiphol (EHAM) |
| Time | Latitude | Longitude | Altitude | Speed | Heading |
|---|---|---|---|---|---|
| 2026-05-04 08:24 | 12.32241 | -68.82548 | 6904 ft | 290 kts | 19° |
| 2026-05-04 08:24 | 12.34170 | -68.81936 | 7491 ft | 290 kts | 20° |
| 2026-05-04 08:25 | 12.36091 | -68.81325 | 8097 ft | 289 kts | 20° |
| 2026-05-04 08:25 | 12.38011 | -68.80712 | 8669 ft | 289 kts | 21° |
| 2026-05-04 08:25 | 12.39928 | -68.80099 | 9230 ft | 289 kts | 21° |
| 2026-05-04 08:25 | 12.41854 | -68.79481 | 9760 ft | 291 kts | 21° |
| 2026-05-04 08:26 | 12.43793 | -68.78859 | 10179 ft | 295 kts | 21° |
| 2026-05-04 08:27 | 12.59968 | -68.73662 | 12116 ft | 386 kts | 20° |
| 2026-05-04 08:28 | 12.62541 | -68.72836 | 12831 ft | 389 kts | 20° |
| 2026-05-04 08:28 | 12.65135 | -68.72003 | 13515 ft | 392 kts | 20° |
| 2026-05-04 08:28 | 12.67745 | -68.71137 | 14070 ft | 396 kts | 21° |
| 2026-05-04 08:28 | 12.70350 | -68.70179 | 14603 ft | 399 kts | 23° |
| 2026-05-04 08:29 | 12.72965 | -68.69174 | 15104 ft | 403 kts | 23° |
| 2026-05-04 08:29 | 12.75600 | -68.68153 | 15621 ft | 407 kts | 23° |
| 2026-05-04 08:29 | 12.78265 | -68.67122 | 16092 ft | 411 kts | 23° |
| 2026-05-04 08:31 | 12.97624 | -68.59756 | 19177 ft | 436 kts | 22° |
| 2026-05-04 08:33 | 13.17854 | -68.52085 | 22015 ft | 450 kts | 20° |
| 2026-05-04 08:33 | 13.20804 | -68.50966 | 22412 ft | 452 kts | 20° |
| 2026-05-04 08:35 | 13.41878 | -68.42956 | 24626 ft | 471 kts | 19° |
| 2026-05-04 08:35 | 13.44963 | -68.41782 | 24903 ft | 473 kts | 19° |
| 2026-05-04 08:35 | 13.48068 | -68.40600 | 25162 ft | 476 kts | 19° |
| 2026-05-04 08:35 | 13.51182 | -68.39415 | 25438 ft | 478 kts | 19° |
| 2026-05-04 08:37 | 13.70189 | -68.32171 | 26985 ft | 492 kts | 18° |
| 2026-05-04 08:37 | 13.73370 | -68.30957 | 27225 ft | 494 kts | 18° |
| 2026-05-04 08:37 | 13.76599 | -68.29725 | 27482 ft | 496 kts | 18° |
| 2026-05-04 08:38 | 13.79839 | -68.28488 | 27734 ft | 498 kts | 18° |
| 2026-05-04 08:38 | 13.83096 | -68.27245 | 27960 ft | 500 kts | 18° |
| 2026-05-04 08:38 | 13.86366 | -68.25996 | 28174 ft | 502 kts | 18° |
| 2026-05-04 08:40 | 14.09538 | -68.17134 | 29583 ft | 512 kts | 18° |
| 2026-05-04 08:40 | 14.12880 | -68.15855 | 29766 ft | 513 kts | 18° |
| 2026-05-04 08:40 | 14.16226 | -68.14573 | 29935 ft | 514 kts | 18° |
| 2026-05-04 08:41 | 14.19582 | -68.13287 | 30087 ft | 515 kts | 18° |
| 2026-05-04 08:41 | 14.22906 | -68.12013 | 30251 ft | 515 kts | 18° |
| 2026-05-04 08:41 | 14.26267 | -68.10724 | 30495 ft | 513 kts | 18° |
| 2026-05-04 08:41 | 14.29604 | -68.09443 | 30782 ft | 511 kts | 17° |
| 2026-05-04 08:42 | 14.32929 | -68.08167 | 31030 ft | 510 kts | 17° |
| 2026-05-04 08:42 | 14.36252 | -68.06892 | 31248 ft | 509 kts | 17° |
| 2026-05-04 08:42 | 14.39575 | -68.05616 | 31469 ft | 509 kts | 17° |
| 2026-05-04 08:42 | 14.42895 | -68.04342 | 31718 ft | 508 kts | 17° |
| 2026-05-04 08:43 | 14.46209 | -68.03069 | 31981 ft | 507 kts | 17° |
| 2026-05-04 08:43 | 14.49506 | -68.01802 | 32254 ft | 505 kts | 17° |
| 2026-05-04 08:43 | 14.52797 | -68.00537 | 32520 ft | 504 kts | 17° |
| 2026-05-04 08:43 | 14.56086 | -67.99272 | 32781 ft | 503 kts | 17° |
| 2026-05-04 08:44 | 14.59363 | -67.98012 | 33064 ft | 502 kts | 17° |
| 2026-05-04 08:44 | 14.62624 | -67.96757 | 33377 ft | 500 kts | 17° |
| 2026-05-04 08:46 | 14.85242 | -67.88045 | 34931 ft | 496 kts | 17° |
| 2026-05-04 08:46 | 14.91707 | -67.85552 | 34986 ft | 492 kts | 17° |
| 2026-05-04 08:47 | 14.98076 | -67.83091 | 34984 ft | 486 kts | 17° |
| 2026-05-04 08:47 | 15.04408 | -67.80646 | 34993 ft | 485 kts | 17° |
| 2026-05-04 08:48 | 15.10689 | -67.78219 | 34996 ft | 485 kts | 17° |
| 2026-05-04 08:48 | 15.17033 | -67.75767 | 34993 ft | 486 kts | 17° |
| 2026-05-04 08:49 | 15.23376 | -67.73312 | 34994 ft | 487 kts | 17° |
| 2026-05-04 08:50 | 15.45602 | -67.64698 | 35000 ft | 489 kts | 17° |
| 2026-05-04 08:51 | 15.51986 | -67.62220 | 35003 ft | 489 kts | 17° |
| 2026-05-04 08:51 | 15.58374 | -67.59738 | 34999 ft | 490 kts | 17° |
| 2026-05-04 08:52 | 15.64761 | -67.57256 | 34997 ft | 490 kts | 17° |
| 2026-05-04 08:52 | 15.71151 | -67.54770 | 35003 ft | 490 kts | 17° |
| 2026-05-04 08:54 | 15.91354 | -67.37131 | 35016 ft | 509 kts | 55° |
| 2026-05-04 08:55 | 15.95174 | -67.30916 | 35010 ft | 511 kts | 54° |
| 2026-05-04 08:55 | 15.99003 | -67.24732 | 35010 ft | 512 kts | 54° |
| 2026-05-04 09:01 | 16.38711 | -66.60062 | 35021 ft | 503 kts | 55° |
| 2026-05-04 09:01 | 16.42473 | -66.53902 | 35020 ft | 504 kts | 55° |
| 2026-05-04 09:02 | 16.46240 | -66.47731 | 35019 ft | 505 kts | 55° |
| 2026-05-04 09:02 | 16.50010 | -66.41547 | 35020 ft | 505 kts | 55° |
| 2026-05-04 09:03 | 16.53139 | -66.36412 | 35022 ft | 505 kts | 55° |
| 2026-05-04 09:03 | 16.57516 | -66.29222 | 35020 ft | 505 kts | 55° |
| 2026-05-04 09:04 | 16.61275 | -66.23040 | 35023 ft | 504 kts | 55° |
| 2026-05-04 09:04 | 16.64402 | -66.17895 | 35023 ft | 504 kts | 55° |
| 2026-05-04 09:05 | 16.68153 | -66.11718 | 35021 ft | 504 kts | 55° |
| 2026-05-04 09:05 | 16.71901 | -66.05540 | 35022 ft | 504 kts | 55° |
| 2026-05-04 09:06 | 16.75653 | -65.99349 | 35023 ft | 504 kts | 55° |
| 2026-05-04 09:08 | 16.90595 | -65.74645 | 35024 ft | 504 kts | 55° |
| 2026-05-04 09:08 | 16.94334 | -65.68448 | 35021 ft | 504 kts | 55° |
| 2026-05-04 09:09 | 16.98073 | -65.62246 | 35019 ft | 503 kts | 55° |
| 2026-05-04 09:09 | 17.01803 | -65.56054 | 35011 ft | 503 kts | 55° |
| 2026-05-04 09:10 | 17.05532 | -65.49858 | 35026 ft | 503 kts | 55° |
| 2026-05-04 09:10 | 17.09237 | -65.43696 | 35026 ft | 503 kts | 55° |
| 2026-05-04 09:11 | 17.12960 | -65.37499 | 35033 ft | 503 kts | 55° |
| 2026-05-04 09:11 | 17.16677 | -65.31305 | 35030 ft | 503 kts | 55° |
| 2026-05-04 09:12 | 17.20395 | -65.25106 | 35035 ft | 502 kts | 55° |
| 2026-05-04 09:14 | 17.35184 | -65.00385 | 35037 ft | 501 kts | 56° |
| 2026-05-04 09:14 | 17.38881 | -64.94192 | 35049 ft | 501 kts | 56° |
| 2026-05-04 09:15 | 17.42575 | -64.87998 | 35051 ft | 501 kts | 56° |
| 2026-05-04 09:15 | 17.46264 | -64.81806 | 35042 ft | 501 kts | 56° |
| 2026-05-04 09:17 | 17.62782 | -64.54009 | 36278 ft | 493 kts | 56° |
| 2026-05-04 09:18 | 17.64588 | -64.50962 | 36527 ft | 492 kts | 56° |
| 2026-05-04 09:18 | 17.66373 | -64.47952 | 36746 ft | 491 kts | 56° |
| 2026-05-04 09:18 | 17.68174 | -64.44912 | 36936 ft | 491 kts | 56° |
| 2026-05-04 09:18 | 17.69978 | -64.41866 | 37001 ft | 492 kts | 56° |
| 2026-05-04 09:19 | 17.73570 | -64.35795 | 37026 ft | 491 kts | 56° |
| 2026-05-04 09:19 | 17.77157 | -64.29723 | 36786 ft | 490 kts | 56° |
| 2026-05-04 09:20 | 17.80760 | -64.23705 | 36912 ft | 484 kts | 56° |
| 2026-05-04 09:20 | 17.84269 | -64.17703 | 37047 ft | 482 kts | 56° |
| 2026-05-04 09:21 | 17.87796 | -64.11696 | 37048 ft | 484 kts | 56° |
| 2026-05-04 09:21 | 17.91328 | -64.05694 | 37052 ft | 487 kts | 56° |
| 2026-05-04 09:22 | 17.94900 | -63.99623 | 37056 ft | 490 kts | 56° |
| 2026-05-04 09:22 | 17.98489 | -63.93518 | 37051 ft | 492 kts | 56° |
| 2026-05-04 09:23 | 18.02085 | -63.87392 | 37046 ft | 493 kts | 56° |
| 2026-05-04 09:23 | 18.05682 | -63.81257 | 37046 ft | 493 kts | 56° |
| 2026-05-04 09:25 | 18.19971 | -63.56838 | 37050 ft | 489 kts | 56° |
| 2026-05-04 09:26 | 18.23533 | -63.50736 | 37052 ft | 488 kts | 56° |
| 2026-05-04 09:26 | 18.27085 | -63.44643 | 37054 ft | 488 kts | 56° |
| 2026-05-04 09:27 | 18.30635 | -63.38552 | 37052 ft | 488 kts | 56° |
| 2026-05-04 09:27 | 18.34178 | -63.32463 | 37057 ft | 488 kts | 56° |
| 2026-05-04 09:28 | 18.37700 | -63.26406 | 37058 ft | 488 kts | 56° |
| 2026-05-04 09:28 | 18.41247 | -63.20301 | 37059 ft | 489 kts | 56° |
| 2026-05-04 09:29 | 18.44978 | -63.14322 | 37054 ft | 488 kts | 53° |
| 2026-05-04 09:29 | 18.48859 | -63.08444 | 37060 ft | 488 kts | 53° |
| 2026-05-04 09:30 | 18.52744 | -63.02560 | 37057 ft | 489 kts | 53° |
| 2026-05-04 09:30 | 18.56611 | -62.96654 | 37058 ft | 490 kts | 53° |
| 2026-05-04 09:31 | 18.60450 | -62.90764 | 37057 ft | 490 kts | 53° |
| 2026-05-04 09:31 | 18.64315 | -62.84827 | 37060 ft | 490 kts | 53° |
| 2026-05-04 09:32 | 18.68175 | -62.78893 | 37064 ft | 490 kts | 53° |
| 2026-05-04 09:34 | 18.83607 | -62.55123 | 37065 ft | 491 kts | 54° |
| 2026-05-04 09:34 | 18.87464 | -62.49168 | 37065 ft | 490 kts | 54° |
| 2026-05-04 09:35 | 18.91287 | -62.43261 | 37068 ft | 490 kts | 53° |
| 2026-05-04 09:35 | 18.95138 | -62.37304 | 37068 ft | 490 kts | 54° |
| 2026-05-04 09:37 | 19.10507 | -62.13471 | 37067 ft | 491 kts | 54° |
| 2026-05-04 09:38 | 19.14350 | -62.07497 | 37068 ft | 491 kts | 54° |
| 2026-05-04 09:38 | 19.18186 | -62.01528 | 37069 ft | 491 kts | 53° |
| 2026-05-04 09:39 | 19.22024 | -61.95550 | 37069 ft | 491 kts | 54° |
| 2026-05-04 09:39 | 19.25860 | -61.89570 | 37085 ft | 491 kts | 54° |
| 2026-05-04 09:40 | 19.29695 | -61.83584 | 37077 ft | 491 kts | 54° |
| 2026-05-04 09:40 | 19.33542 | -61.77665 | 37072 ft | 490 kts | 51° |
| 2026-05-04 09:42 | 19.52575 | -61.57310 | 37085 ft | 487 kts | 43° |
| 2026-05-04 09:43 | 19.57386 | -61.52245 | 37086 ft | 487 kts | 43° |
| 2026-05-04 09:43 | 19.62203 | -61.47166 | 37091 ft | 487 kts | 43° |
| 2026-05-04 09:44 | 19.67022 | -61.42084 | 37086 ft | 488 kts | 43° |
| 2026-05-04 09:46 | 19.86261 | -61.21753 | 37081 ft | 488 kts | 43° |
| 2026-05-04 09:46 | 19.91077 | -61.16652 | 37087 ft | 488 kts | 43° |
| 2026-05-04 09:47 | 19.95862 | -61.11579 | 37088 ft | 488 kts | 43° |
| 2026-05-04 09:49 | 20.15095 | -60.91144 | 37090 ft | 488 kts | 43° |
| 2026-05-04 09:51 | 20.31873 | -60.73254 | 37093 ft | 488 kts | 43° |
| 2026-05-04 09:51 | 20.36669 | -60.68129 | 37092 ft | 488 kts | 43° |
| 2026-05-04 09:52 | 20.41461 | -60.63005 | 37099 ft | 488 kts | 43° |
| 2026-05-04 09:52 | 20.45440 | -60.58746 | 37096 ft | 488 kts | 43° |
| 2026-05-04 09:53 | 20.50229 | -60.53616 | 37102 ft | 488 kts | 43° |
| 2026-05-04 09:53 | 20.55012 | -60.48486 | 37100 ft | 488 kts | 43° |
| 2026-05-04 09:54 | 20.59798 | -60.43349 | 37103 ft | 488 kts | 43° |
| 2026-05-04 09:54 | 20.64582 | -60.38209 | 37094 ft | 487 kts | 43° |
| 2026-05-04 09:55 | 20.69366 | -60.33066 | 37104 ft | 487 kts | 43° |
| 2026-05-04 09:55 | 20.74118 | -60.27951 | 37105 ft | 487 kts | 43° |
| 2026-05-04 09:56 | 20.78897 | -60.22801 | 37098 ft | 487 kts | 43° |
| 2026-05-04 09:56 | 20.83669 | -60.17655 | 37097 ft | 487 kts | 43° |
| 2026-05-04 09:57 | 20.88443 | -60.12501 | 37119 ft | 487 kts | 43° |
| 2026-05-04 09:57 | 20.93208 | -60.07351 | 37116 ft | 487 kts | 43° |
| 2026-05-04 09:58 | 20.97978 | -60.02191 | 37110 ft | 487 kts | 43° |
| 2026-05-04 09:58 | 21.02659 | -59.97015 | 37103 ft | 487 kts | 45° |
| 2026-05-04 10:00 | 21.20694 | -59.75280 | 37118 ft | 487 kts | 46° |
| 2026-05-04 10:04 | 21.52287 | -59.37334 | 37115 ft | 487 kts | 46° |
| 2026-05-04 10:04 | 21.56756 | -59.31943 | 37112 ft | 487 kts | 46° |
| 2026-05-04 10:05 | 21.61260 | -59.26504 | 37113 ft | 486 kts | 46° |
| 2026-05-04 10:05 | 21.65751 | -59.21077 | 37119 ft | 485 kts | 46° |
| 2026-05-04 10:06 | 21.70233 | -59.15653 | 37117 ft | 485 kts | 46° |
| 2026-05-04 10:06 | 21.74716 | -59.10224 | 37117 ft | 484 kts | 46° |
| 2026-05-04 10:08 | 21.90325 | -58.91276 | 37120 ft | 484 kts | 46° |
| 2026-05-04 10:08 | 21.94785 | -58.85850 | 37119 ft | 483 kts | 46° |
| 2026-05-04 10:09 | 21.99244 | -58.80419 | 37123 ft | 483 kts | 46° |
| 2026-05-04 10:09 | 22.03703 | -58.74983 | 37127 ft | 484 kts | 46° |
| 2026-05-04 10:10 | 22.08163 | -58.69539 | 37125 ft | 484 kts | 46° |
| 2026-05-04 10:10 | 22.12622 | -58.64091 | 37127 ft | 484 kts | 46° |
| 2026-05-04 10:11 | 22.17087 | -58.58631 | 37129 ft | 485 kts | 46° |
| 2026-05-04 10:11 | 22.21550 | -58.53167 | 37129 ft | 485 kts | 46° |
| 2026-05-04 10:12 | 22.26015 | -58.47695 | 37136 ft | 486 kts | 46° |
| 2026-05-04 10:12 | 22.30481 | -58.42216 | 37131 ft | 486 kts | 46° |
| 2026-05-04 10:13 | 22.34914 | -58.36771 | 37125 ft | 486 kts | 46° |
| 2026-05-04 10:13 | 22.39376 | -58.31285 | 37127 ft | 485 kts | 46° |
| 2026-05-04 10:14 | 22.43835 | -58.25797 | 37127 ft | 485 kts | 46° |
| 2026-05-04 10:16 | 22.61590 | -58.03887 | 37133 ft | 483 kts | 46° |
| 2026-05-04 10:16 | 22.66026 | -57.98399 | 37130 ft | 483 kts | 46° |
| 2026-05-04 10:17 | 22.70448 | -57.92921 | 37131 ft | 483 kts | 46° |
| 2026-05-04 10:19 | 22.88095 | -57.71006 | 37136 ft | 482 kts | 46° |
| 2026-05-04 10:19 | 22.92503 | -57.65516 | 37136 ft | 483 kts | 46° |
| 2026-05-04 10:20 | 22.96915 | -57.60016 | 37139 ft | 483 kts | 46° |
| 2026-05-04 10:20 | 23.01294 | -57.54551 | 37135 ft | 483 kts | 46° |
| 2026-05-04 10:21 | 23.05702 | -57.49045 | 37137 ft | 483 kts | 46° |
| 2026-05-04 10:21 | 23.10105 | -57.43538 | 37136 ft | 483 kts | 46° |
| 2026-05-04 10:22 | 23.16709 | -57.35267 | 37145 ft | 483 kts | 46° |
| 2026-05-04 10:23 | 23.21107 | -57.29753 | 37140 ft | 482 kts | 46° |
| 2026-05-04 10:25 | 23.38641 | -57.07703 | 37150 ft | 482 kts | 46° |
| 2026-05-04 10:25 | 23.43025 | -57.02175 | 37144 ft | 482 kts | 46° |
| 2026-05-04 10:26 | 23.47380 | -56.96678 | 37148 ft | 481 kts | 46° |
| 2026-05-04 10:26 | 23.51760 | -56.91142 | 37146 ft | 481 kts | 46° |
| 2026-05-04 10:27 | 23.56131 | -56.85612 | 37147 ft | 481 kts | 46° |
| 2026-05-04 10:27 | 23.60501 | -56.80077 | 37155 ft | 481 kts | 46° |
| 2026-05-04 10:28 | 23.64867 | -56.74540 | 37148 ft | 481 kts | 46° |
| 2026-05-04 10:28 | 23.69203 | -56.69037 | 37150 ft | 481 kts | 46° |
| 2026-05-04 10:29 | 23.73560 | -56.63499 | 37149 ft | 481 kts | 46° |
| 2026-05-04 10:29 | 23.77916 | -56.57957 | 37149 ft | 480 kts | 46° |
| 2026-05-04 10:30 | 23.82265 | -56.52419 | 37152 ft | 480 kts | 46° |
| 2026-05-04 10:30 | 23.86608 | -56.46881 | 37152 ft | 479 kts | 46° |
| 2026-05-04 10:31 | 23.90945 | -56.41343 | 37155 ft | 479 kts | 46° |
| 2026-05-04 10:32 | 24.06067 | -56.21991 | 37147 ft | 478 kts | 46° |
| 2026-05-04 10:33 | 24.10393 | -56.16441 | 37152 ft | 478 kts | 46° |
| 2026-05-04 10:33 | 24.14712 | -56.10892 | 37161 ft | 479 kts | 46° |
| 2026-05-04 10:34 | 24.19003 | -56.05375 | 37150 ft | 479 kts | 46° |
| 2026-05-04 10:34 | 24.23332 | -55.99801 | 37150 ft | 480 kts | 46° |
| 2026-05-04 10:35 | 24.27660 | -55.94223 | 37151 ft | 480 kts | 46° |
| 2026-05-04 10:35 | 24.31993 | -55.88632 | 37151 ft | 480 kts | 46° |
| 2026-05-04 10:36 | 24.36320 | -55.83041 | 37152 ft | 481 kts | 46° |
| 2026-05-04 10:36 | 24.40656 | -55.77433 | 37157 ft | 482 kts | 46° |
| 2026-05-04 10:37 | 24.44989 | -55.71822 | 37162 ft | 482 kts | 46° |
| 2026-05-04 10:37 | 24.49291 | -55.66243 | 37154 ft | 482 kts | 46° |
| 2026-05-04 10:39 | 24.64423 | -55.46574 | 37161 ft | 481 kts | 46° |
| 2026-05-04 10:40 | 24.68744 | -55.40943 | 37156 ft | 481 kts | 46° |